createdAt,value
2019-05-06T00:02:06.523Z,98.10
2019-05-06T00:04:34.103Z,98.00
2019-05-06T00:07:00.587Z,97.90
2019-05-06T00:09:27.024Z,97.90
2019-05-06T00:11:54.374Z,98.00
2019-05-06T00:14:23.423Z,98.20
2019-05-06T00:16:49.470Z,98.50
2019-05-06T00:19:15.929Z,98.40
2019-05-06T00:21:44.215Z,98.60
2019-05-06T00:24:10.545Z,98.50
2019-05-06T00:26:38.809Z,98.50
2019-05-06T00:29:07.277Z,98.50
2019-05-06T00:31:34.560Z,98.50
2019-05-06T00:34:01.072Z,98.50
2019-05-06T00:36:27.426Z,98.60
2019-05-06T00:38:55.969Z,98.60
2019-05-06T00:41:26.948Z,98.70
2019-05-06T00:43:54.665Z,98.80
2019-05-06T00:46:21.144Z,98.90
2019-05-06T00:48:47.589Z,98.90
2019-05-06T00:51:14.045Z,99.10
2019-05-06T00:53:43.712Z,99.30
2019-05-06T00:56:09.948Z,99.50
2019-05-06T00:58:36.297Z,99.70
2019-05-06T01:01:04.637Z,99.90
2019-05-06T01:03:30.997Z,99.90
2019-05-06T01:05:57.439Z,99.80
2019-05-06T01:08:24.146Z,99.90
2019-05-06T01:10:50.637Z,99.90
2019-05-06T01:13:18.885Z,99.90
2019-05-06T01:15:45.266Z,99.90
2019-05-06T01:18:13.656Z,99.90
2019-05-06T01:20:39.982Z,99.90
2019-05-06T01:23:06.423Z,99.90
2019-05-06T01:25:34.622Z,99.90
2019-05-06T01:28:01.029Z,99.90
2019-05-06T01:30:27.660Z,99.90
2019-05-06T01:32:54.485Z,99.90
2019-05-06T01:35:20.753Z,99.90
2019-05-06T01:37:48.997Z,99.90
2019-05-06T01:40:17.341Z,99.90
2019-05-06T01:42:54.326Z,99.90
2019-05-06T01:45:20.678Z,99.90
2019-05-06T01:47:47.108Z,99.90
2019-05-06T01:50:14.065Z,99.90
2019-05-06T01:52:40.333Z,99.90
2019-05-06T01:55:07.481Z,99.90
2019-05-06T01:57:33.940Z,99.90
2019-05-06T02:00:00.289Z,99.90
2019-05-06T02:02:26.739Z,99.90
2019-05-06T02:04:54.117Z,99.90
2019-05-06T02:07:20.727Z,99.90
2019-05-06T02:09:47.157Z,99.90
2019-05-06T02:12:13.889Z,99.90
2019-05-06T02:14:40.309Z,99.90
2019-05-06T02:17:06.689Z,99.90
2019-05-06T02:19:34.695Z,99.90
2019-05-06T02:22:04.328Z,99.90
2019-05-06T02:24:44.569Z,99.90
2019-05-06T02:27:10.795Z,99.90
2019-05-06T02:29:39.150Z,99.90
2019-05-06T02:32:25.601Z,99.90
2019-05-06T02:34:54.344Z,99.90
2019-05-06T02:37:27.642Z,99.90
2019-05-06T02:39:53.874Z,99.90
2019-05-06T02:42:20.318Z,99.90
2019-05-06T02:44:46.873Z,99.90
2019-05-06T02:47:23.044Z,99.90
2019-05-06T02:50:00.037Z,99.90
2019-05-06T02:52:26.374Z,99.90
2019-05-06T02:54:53.657Z,99.90
2019-05-06T02:57:20.154Z,99.90
2019-05-06T02:59:46.509Z,99.90
2019-05-06T03:02:14.000Z,99.90
2019-05-06T03:04:43.472Z,99.90
2019-05-06T03:07:08.737Z,99.90
2019-05-06T03:09:36.029Z,99.90
2019-05-06T03:12:03.563Z,99.90
2019-05-06T03:14:30.382Z,99.90
2019-05-06T03:16:56.835Z,99.90
2019-05-06T03:19:24.430Z,99.90
2019-05-06T03:22:07.394Z,99.90
2019-05-06T03:24:38.350Z,99.90
2019-05-06T03:27:05.027Z,99.90
2019-05-06T03:29:33.357Z,99.90
2019-05-06T03:31:59.585Z,99.90
2019-05-06T03:34:49.804Z,99.90
2019-05-06T03:36:56.189Z,99.90
2019-05-06T03:39:23.226Z,99.90
2019-05-06T03:41:49.629Z,99.90
2019-05-06T03:44:16.751Z,99.90
2019-05-06T03:47:05.290Z,99.90
2019-05-06T03:49:34.278Z,99.90
2019-05-06T03:52:02.730Z,99.90
2019-05-06T03:54:29.149Z,99.90
2019-05-06T03:56:55.785Z,99.90
2019-05-06T03:59:23.276Z,99.90
2019-05-06T04:01:49.891Z,99.90
2019-05-06T04:04:16.111Z,99.90
2019-05-06T04:06:43.654Z,99.90
2019-05-06T04:09:13.047Z,99.90
2019-05-06T04:11:38.649Z,99.90
2019-05-06T04:14:05.298Z,99.90
2019-05-06T04:16:36.539Z,99.90
2019-05-06T04:19:07.646Z,99.90
2019-05-06T04:21:38.518Z,99.90
2019-05-06T04:24:07.558Z,99.90
2019-05-06T04:26:35.901Z,99.90
2019-05-06T04:29:03.885Z,99.90
2019-05-06T04:31:33.400Z,99.90
2019-05-06T04:34:09.854Z,99.90
2019-05-06T04:36:28.270Z,99.90
2019-05-06T04:38:54.708Z,99.80
2019-05-06T04:41:26.161Z,99.80
2019-05-06T04:43:49.434Z,99.60
2019-05-06T04:46:17.006Z,99.30
2019-05-06T04:48:43.524Z,99.20
2019-05-06T04:51:10.179Z,99.00
2019-05-06T04:53:36.615Z,99.00
2019-05-06T04:56:03.993Z,99.00
2019-05-06T04:58:33.282Z,98.80
2019-05-06T05:00:59.454Z,98.30
2019-05-06T05:03:25.900Z,98.00
2019-05-06T05:05:53.108Z,97.90
2019-05-06T05:08:22.347Z,98.10
2019-05-06T05:10:53.569Z,98.10
2019-05-06T05:13:33.765Z,98.00
2019-05-06T05:16:07.916Z,97.50
2019-05-06T05:18:36.270Z,97.00
2019-05-06T05:21:02.713Z,97.00
2019-05-06T05:23:29.279Z,96.80
2019-05-06T05:25:55.729Z,96.90
2019-05-06T05:28:22.400Z,96.60
2019-05-06T05:30:48.998Z,96.80
2019-05-06T05:33:15.477Z,96.60
2019-05-06T05:35:43.271Z,96.40
2019-05-06T05:38:09.892Z,96.30
2019-05-06T05:40:36.629Z,96.10
2019-05-06T05:43:13.585Z,96.10
2019-05-06T05:45:42.334Z,96.10
2019-05-06T05:48:13.073Z,96.10
2019-05-06T05:50:42.043Z,96.00
2019-05-06T05:53:08.560Z,95.60
2019-05-06T05:55:35.006Z,95.40
2019-05-06T05:58:03.144Z,95.50
2019-05-06T06:00:32.421Z,95.10
2019-05-06T06:02:59.013Z,94.90
2019-05-06T06:05:25.726Z,94.80
2019-05-06T06:07:52.993Z,94.80
2019-05-06T06:10:30.125Z,94.30
2019-05-06T06:12:56.593Z,94.20
2019-05-06T06:15:27.952Z,94.00
2019-05-06T06:18:12.652Z,94.20
2019-05-06T06:20:55.891Z,94.10
2019-05-06T06:23:24.441Z,93.60
2019-05-06T06:25:52.882Z,92.50
2019-05-06T06:28:19.401Z,92.10
2019-05-06T06:30:56.749Z,91.80
2019-05-06T06:33:23.085Z,91.60
2019-05-06T06:35:51.969Z,91.20
2019-05-06T06:38:20.369Z,90.30
2019-05-06T06:40:46.726Z,90.80
2019-05-06T06:43:15.164Z,89.20
2019-05-06T06:45:42.164Z,87.20
2019-05-06T06:48:08.554Z,87.20
2019-05-06T06:50:35.153Z,87.90
2019-05-06T06:53:03.094Z,87.10
2019-05-06T06:55:31.739Z,88.50
2019-05-06T06:58:05.591Z,87.10
2019-05-06T07:00:34.746Z,87.40
2019-05-06T07:03:03.303Z,86.30
2019-05-06T07:05:42.196Z,83.70
2019-05-06T07:08:08.548Z,81.10
2019-05-06T07:10:36.802Z,79.10
2019-05-06T07:13:03.448Z,79.40
2019-05-06T07:15:29.881Z,78.00
2019-05-06T07:17:56.333Z,74.80
2019-05-06T07:20:27.221Z,74.80
2019-05-06T07:22:53.482Z,72.30
2019-05-06T07:25:19.813Z,72.20
2019-05-06T07:27:46.272Z,71.00
2019-05-06T07:30:12.708Z,69.70
2019-05-06T07:32:38.960Z,70.20
2019-05-06T07:35:06.303Z,71.40
2019-05-06T07:37:32.813Z,72.30
2019-05-06T07:39:59.104Z,73.50
2019-05-06T07:42:39.402Z,74.60
2019-05-06T07:45:12.399Z,75.40
2019-05-06T07:47:42.594Z,75.40
2019-05-06T07:50:09.334Z,74.70
2019-05-06T07:52:35.779Z,71.80
2019-05-06T07:55:02.685Z,71.10
2019-05-06T07:57:29.176Z,70.90
2019-05-06T07:59:55.525Z,72.50
2019-05-06T08:02:22.868Z,72.10
2019-05-06T08:04:49.436Z,73.00
2019-05-06T08:07:15.786Z,73.00
2019-05-06T08:09:42.509Z,73.20
2019-05-06T08:12:08.952Z,72.50
2019-05-06T08:14:43.069Z,73.10
2019-05-06T08:17:12.700Z,73.50
2019-05-06T08:19:39.164Z,74.00
2019-05-06T08:22:07.522Z,74.70
2019-05-06T08:24:33.864Z,74.30
2019-05-06T08:27:00.210Z,73.50
2019-05-06T08:29:26.553Z,72.60
2019-05-06T08:31:52.897Z,72.50
2019-05-06T08:34:19.341Z,70.00
2019-05-06T08:36:47.485Z,70.60
2019-05-06T08:39:13.929Z,71.30
2019-05-06T08:41:42.209Z,68.70
2019-05-06T08:44:08.528Z,69.10
2019-05-06T08:46:34.884Z,68.40
2019-05-06T08:49:03.037Z,69.10
2019-05-06T08:51:34.451Z,67.90
2019-05-06T08:54:03.257Z,67.80
2019-05-06T08:56:31.956Z,67.90
2019-05-06T08:58:57.952Z,68.30
2019-05-06T09:01:32.498Z,68.00
2019-05-06T09:04:08.427Z,68.60
2019-05-06T09:06:30.627Z,67.90
2019-05-06T09:08:56.909Z,67.90
2019-05-06T09:11:25.700Z,66.50
2019-05-06T09:13:52.235Z,66.90
2019-05-06T09:16:18.457Z,67.70
2019-05-06T09:18:44.897Z,68.00
2019-05-06T09:21:12.314Z,68.40
2019-05-06T09:23:38.593Z,68.40
2019-05-06T09:26:06.945Z,68.90
2019-05-06T09:28:42.722Z,68.30
2019-05-06T09:31:23.145Z,68.50
2019-05-06T09:33:57.225Z,68.30
2019-05-06T09:36:23.607Z,68.00
2019-05-06T09:38:50.045Z,67.00
2019-05-06T09:41:16.500Z,67.50
2019-05-06T09:43:43.457Z,65.30
2019-05-06T09:46:12.743Z,64.90
2019-05-06T09:48:42.875Z,64.70
2019-05-06T09:51:09.493Z,62.70
2019-05-06T09:53:37.738Z,61.70
2019-05-06T09:56:17.881Z,62.30
2019-05-06T09:58:44.524Z,62.50
2019-05-06T10:01:13.164Z,63.30
2019-05-06T10:03:39.317Z,64.00
2019-05-06T10:06:05.666Z,65.40
2019-05-06T10:08:32.450Z,63.70
2019-05-06T10:10:59.914Z,59.30
2019-05-06T10:13:26.520Z,59.10
2019-05-06T10:15:52.969Z,61.90
2019-05-06T10:18:19.413Z,59.20
2019-05-06T10:20:45.960Z,58.50
2019-05-06T10:23:12.929Z,58.70
2019-05-06T10:25:39.869Z,58.60
2019-05-06T10:28:08.944Z,58.90
2019-05-06T10:30:35.269Z,58.50
2019-05-06T10:33:06.240Z,60.10
2019-05-06T10:35:32.666Z,57.30
2019-05-06T10:38:12.368Z,55.20
2019-05-06T10:41:00.055Z,58.60
2019-05-06T10:43:32.580Z,60.10
2019-05-06T10:46:01.096Z,57.80
2019-05-06T10:48:27.104Z,57.40
2019-05-06T10:51:03.375Z,56.20
2019-05-06T10:53:29.369Z,56.50
2019-05-06T10:55:57.814Z,56.50
2019-05-06T10:58:24.250Z,56.90
2019-05-06T11:00:52.928Z,57.00
2019-05-06T11:03:22.637Z,57.10
2019-05-06T11:05:49.627Z,53.40
2019-05-06T11:08:16.266Z,54.10
2019-05-06T11:10:45.416Z,56.30
2019-05-06T11:13:12.766Z,59.00
2019-05-06T11:15:39.118Z,59.20
2019-05-06T11:18:05.574Z,60.70
2019-05-06T11:20:33.492Z,62.40
2019-05-06T11:23:02.003Z,61.50
2019-05-06T11:25:28.254Z,59.30
2019-05-06T11:27:54.886Z,58.00
2019-05-06T11:30:26.334Z,57.20
2019-05-06T11:33:04.471Z,59.20
2019-05-06T11:35:36.169Z,62.30
2019-05-06T11:38:13.277Z,61.50
2019-05-06T11:40:41.972Z,64.10
2019-05-06T11:43:07.641Z,66.30
2019-05-06T11:45:34.002Z,66.70
2019-05-06T11:48:00.245Z,67.30
2019-05-06T11:50:26.689Z,67.30
2019-05-06T11:52:55.910Z,65.70
2019-05-06T11:55:28.854Z,67.40
2019-05-06T11:57:49.506Z,66.90
2019-05-06T12:00:18.505Z,66.70
2019-05-06T12:02:48.393Z,65.20
2019-05-06T12:05:13.203Z,67.20
2019-05-06T12:07:39.668Z,68.50
2019-05-06T12:10:06.950Z,66.00
2019-05-06T12:12:33.185Z,66.50
2019-05-06T12:14:59.789Z,68.00
2019-05-06T12:17:26.021Z,69.30
2019-05-06T12:19:52.882Z,70.40
2019-05-06T12:22:21.987Z,71.20
2019-05-06T12:24:47.647Z,70.20
2019-05-06T12:27:15.837Z,70.70
2019-05-06T12:29:42.890Z,71.20
2019-05-06T12:32:12.901Z,71.60
2019-05-06T12:34:39.125Z,70.90
2019-05-06T12:37:07.457Z,71.50
2019-05-06T12:39:33.985Z,70.80
2019-05-06T12:42:02.240Z,70.20
2019-05-06T12:44:29.582Z,71.60
2019-05-06T12:46:59.827Z,72.90
2019-05-06T12:49:25.882Z,73.20
2019-05-06T12:51:53.780Z,74.40
2019-05-06T12:54:22.386Z,74.00
2019-05-06T12:56:51.785Z,74.20
2019-05-06T12:59:18.200Z,74.60
2019-05-06T13:01:45.756Z,72.50
2019-05-06T13:04:13.531Z,71.00
2019-05-06T13:06:45.831Z,70.50
2019-05-06T13:09:08.319Z,71.60
2019-05-06T13:11:34.549Z,70.90
2019-05-06T13:14:03.934Z,71.50
2019-05-06T13:16:29.246Z,72.60
2019-05-06T13:18:55.490Z,71.30
2019-05-06T13:21:22.405Z,71.60
2019-05-06T13:23:50.661Z,72.10
2019-05-06T13:26:16.918Z,72.50
2019-05-06T13:28:45.257Z,71.70
2019-05-06T13:31:20.490Z,73.10
2019-05-06T13:33:47.526Z,73.00
2019-05-06T13:36:14.100Z,73.70
2019-05-06T13:38:42.523Z,74.00
2019-05-06T13:41:08.717Z,74.20
2019-05-06T13:43:36.957Z,74.40
2019-05-06T13:46:23.361Z,73.90
2019-05-06T13:49:02.574Z,75.00
2019-05-06T13:51:32.798Z,75.40
2019-05-06T13:53:59.229Z,76.00
2019-05-06T13:56:25.685Z,75.80
2019-05-06T13:58:52.611Z,76.30
2019-05-06T14:01:22.948Z,75.30
2019-05-06T14:03:49.086Z,75.90
2019-05-06T14:06:15.533Z,76.10
2019-05-06T14:08:42.361Z,76.50
2019-05-06T14:11:08.697Z,76.90
2019-05-06T14:13:34.953Z,75.30
2019-05-06T14:16:03.777Z,76.20
2019-05-06T14:18:29.434Z,76.10
2019-05-06T14:20:55.785Z,76.10
2019-05-06T14:23:22.315Z,76.50
2019-05-06T14:26:04.203Z,77.20
2019-05-06T14:28:32.568Z,76.90
2019-05-06T14:31:03.528Z,76.80
2019-05-06T14:33:32.158Z,76.40
2019-05-06T14:35:58.217Z,76.60
2019-05-06T14:38:24.817Z,76.70
2019-05-06T14:41:07.925Z,76.20
2019-05-06T14:43:33.189Z,76.20
2019-05-06T14:45:59.632Z,76.80
2019-05-06T14:48:25.985Z,77.30
2019-05-06T14:50:56.161Z,78.20
2019-05-06T14:53:23.633Z,77.70
2019-05-06T14:55:50.609Z,77.20
2019-05-06T14:58:16.862Z,77.50
2019-05-06T15:00:43.113Z,77.70
2019-05-06T15:03:09.961Z,77.20
2019-05-06T15:05:36.518Z,76.10
2019-05-06T15:08:02.958Z,74.30
2019-05-06T15:10:29.330Z,74.40
2019-05-06T15:12:55.665Z,74.50
2019-05-06T15:15:22.897Z,74.50
2019-05-06T15:17:49.365Z,74.10
2019-05-06T15:20:15.814Z,73.80
2019-05-06T15:22:42.264Z,74.40
2019-05-06T15:25:08.834Z,73.80
2019-05-06T15:27:35.189Z,75.00
2019-05-06T15:30:03.837Z,75.60
2019-05-06T15:32:34.989Z,77.00
2019-05-06T15:35:06.092Z,77.70
2019-05-06T15:37:49.226Z,77.80
2019-05-06T15:40:30.158Z,78.90
2019-05-06T15:42:44.401Z,79.70
2019-05-06T15:45:12.603Z,80.10
2019-05-06T15:47:39.305Z,79.90
2019-05-06T15:50:06.052Z,80.20
2019-05-06T15:52:32.853Z,80.00
2019-05-06T15:54:59.209Z,79.60
2019-05-06T15:57:25.570Z,80.60
2019-05-06T15:59:52.947Z,81.00
2019-05-06T16:02:19.697Z,82.30
2019-05-06T16:04:46.057Z,81.90
2019-05-06T16:07:12.715Z,82.30
2019-05-06T16:09:39.193Z,82.60
2019-05-06T16:12:06.051Z,82.00
2019-05-06T16:14:34.932Z,82.00
2019-05-06T16:17:00.449Z,82.70
2019-05-06T16:19:26.710Z,82.70
2019-05-06T16:21:53.161Z,83.30
2019-05-06T16:24:21.394Z,82.90
2019-05-06T16:26:47.640Z,83.30
2019-05-06T16:29:13.989Z,82.90
2019-05-06T16:31:42.166Z,82.80
2019-05-06T16:34:08.489Z,82.90
2019-05-06T16:36:35.115Z,82.80
2019-05-06T16:39:07.063Z,83.40
2019-05-06T16:41:32.909Z,83.60
2019-05-06T16:43:59.421Z,84.00
2019-05-06T16:46:25.851Z,84.00
2019-05-06T16:48:52.569Z,84.10
2019-05-06T16:51:19.147Z,84.20
2019-05-06T16:53:45.492Z,84.10
2019-05-06T16:56:22.769Z,84.10
2019-05-06T16:58:52.505Z,84.50
2019-05-06T17:01:19.040Z,86.20
2019-05-06T17:03:53.144Z,87.30
2019-05-06T17:06:24.012Z,88.30
2019-05-06T17:08:52.693Z,89.00
2019-05-06T17:11:28.109Z,89.30
2019-05-06T17:13:47.448Z,89.60
2019-05-06T17:16:14.315Z,90.10
2019-05-06T17:18:41.887Z,90.30
2019-05-06T17:21:08.299Z,90.50
2019-05-06T17:23:34.646Z,90.90
2019-05-06T17:26:01.274Z,91.20
2019-05-06T17:28:35.149Z,91.10
2019-05-06T17:31:03.524Z,91.30
2019-05-06T17:33:34.674Z,91.50
2019-05-06T17:36:03.051Z,91.50
2019-05-06T17:38:32.111Z,91.70
2019-05-06T17:40:59.137Z,91.60
2019-05-06T17:43:25.405Z,91.60
2019-05-06T17:46:01.912Z,91.30
2019-05-06T17:48:36.325Z,91.40
2019-05-06T17:51:10.278Z,91.40
2019-05-06T17:53:39.738Z,91.50
2019-05-06T17:56:06.237Z,91.60
2019-05-06T17:58:33.246Z,91.80
2019-05-06T18:00:59.833Z,91.50
2019-05-06T18:03:26.181Z,91.60
2019-05-06T18:05:52.797Z,90.80
2019-05-06T18:08:19.266Z,90.70
2019-05-06T18:10:45.602Z,90.90
2019-05-06T18:13:12.711Z,90.90
2019-05-06T18:15:39.130Z,90.70
2019-05-06T18:18:05.366Z,90.70
2019-05-06T18:20:33.579Z,90.70
2019-05-06T18:23:01.961Z,90.70
2019-05-06T18:25:27.993Z,90.90
2019-05-06T18:27:55.330Z,90.90
2019-05-06T18:30:28.264Z,91.20
2019-05-06T18:32:51.990Z,91.40
2019-05-06T18:35:18.300Z,91.60
2019-05-06T18:37:45.001Z,92.00
2019-05-06T18:40:12.054Z,92.30
2019-05-06T18:42:38.750Z,92.60
2019-05-06T18:45:05.301Z,92.40
2019-05-06T18:47:33.067Z,92.70
2019-05-06T18:49:59.593Z,92.90
2019-05-06T18:52:25.948Z,93.00
2019-05-06T18:54:52.526Z,93.10
2019-05-06T18:57:19.018Z,93.40
2019-05-06T18:59:45.345Z,93.60
2019-05-06T19:02:13.113Z,93.70
2019-05-06T19:04:53.710Z,93.90
2019-05-06T19:07:22.050Z,94.00
2019-05-06T19:09:53.146Z,94.10
2019-05-06T19:12:30.229Z,94.40
2019-05-06T19:14:47.909Z,94.20
2019-05-06T19:17:14.373Z,94.20
2019-05-06T19:19:42.656Z,94.60
2019-05-06T19:22:09.198Z,94.20
2019-05-06T19:24:35.658Z,94.10
2019-05-06T19:27:02.231Z,94.20
2019-05-06T19:29:28.561Z,94.10
2019-05-06T19:31:54.997Z,94.40
2019-05-06T19:34:23.663Z,94.80
2019-05-06T19:36:49.661Z,94.70
2019-05-06T19:39:15.918Z,94.90
2019-05-06T19:41:42.473Z,94.90
2019-05-06T19:44:08.811Z,95.10
2019-05-06T19:46:35.086Z,95.00
2019-05-06T19:49:02.009Z,95.00
2019-05-06T19:51:28.473Z,95.10
2019-05-06T19:53:54.921Z,95.20
2019-05-06T19:56:23.259Z,95.80
2019-05-06T19:58:49.469Z,95.70
2019-05-06T20:01:15.915Z,95.90
2019-05-06T20:03:42.464Z,95.70
2019-05-06T20:06:10.612Z,95.70
2019-05-06T20:08:38.858Z,95.70
2019-05-06T20:11:07.337Z,96.10
2019-05-06T20:13:33.663Z,96.30
2019-05-06T20:16:00.109Z,96.60
2019-05-06T20:18:26.573Z,97.10
2019-05-06T20:20:52.960Z,97.50
2019-05-06T20:23:19.278Z,97.80
2019-05-06T20:25:45.729Z,97.90
2019-05-06T20:28:13.133Z,98.10
2019-05-06T20:30:39.637Z,98.10
2019-05-06T20:33:06.242Z,98.10
2019-05-06T20:35:32.737Z,98.30
2019-05-06T20:37:59.185Z,98.70
2019-05-06T20:40:25.800Z,98.90
2019-05-06T20:42:52.178Z,99.00
2019-05-06T20:45:18.627Z,99.20
2019-05-06T20:47:45.112Z,99.30
2019-05-06T20:50:13.252Z,99.30
2019-05-06T20:52:39.773Z,99.10
2019-05-06T20:55:12.462Z,99.10
2019-05-06T20:57:34.844Z,99.30
2019-05-06T21:00:03.513Z,99.50
2019-05-06T21:02:29.942Z,99.60
2019-05-06T21:04:56.521Z,99.70
2019-05-06T21:07:23.163Z,99.90
2019-05-06T21:09:49.733Z,99.90
2019-05-06T21:12:16.056Z,99.70
2019-05-06T21:14:42.309Z,99.70
2019-05-06T21:17:08.756Z,99.80
2019-05-06T21:19:35.118Z,99.90
2019-05-06T21:22:02.313Z,99.90
2019-05-06T21:24:28.981Z,99.90
2019-05-06T21:26:55.319Z,99.90
2019-05-06T21:29:23.233Z,99.90
2019-05-06T21:31:49.704Z,99.90
2019-05-06T21:34:16.057Z,99.90
2019-05-06T21:36:42.426Z,99.90
2019-05-06T21:39:08.886Z,99.90
2019-05-06T21:41:35.328Z,99.90
2019-05-06T21:44:02.413Z,99.90
2019-05-06T21:46:28.821Z,99.90
2019-05-06T21:48:55.063Z,99.90
2019-05-06T21:51:22.213Z,99.90
2019-05-06T21:53:48.804Z,99.90
2019-05-06T21:56:15.297Z,99.90
2019-05-06T21:58:42.831Z,99.90
2019-05-06T22:01:09.530Z,99.90
2019-05-06T22:03:35.961Z,99.90
2019-05-06T22:06:02.717Z,99.90
2019-05-06T22:08:29.205Z,99.90
2019-05-06T22:10:55.577Z,99.90
2019-05-06T22:13:21.982Z,99.90
2019-05-06T22:15:48.764Z,99.90
2019-05-06T22:18:15.009Z,99.90
2019-05-06T22:20:59.839Z,99.90
2019-05-06T22:23:28.182Z,99.90
2019-05-06T22:26:08.298Z,99.90
2019-05-06T22:28:22.769Z,99.90
2019-05-06T22:30:48.969Z,99.90
2019-05-06T22:33:15.474Z,99.90
2019-05-06T22:35:43.029Z,99.90
2019-05-06T22:38:09.358Z,99.90
2019-05-06T22:40:35.720Z,99.90
2019-05-06T22:43:03.192Z,99.90
2019-05-06T22:45:29.534Z,99.90
2019-05-06T22:47:55.876Z,99.90
2019-05-06T22:50:22.626Z,99.90
2019-05-06T22:52:48.857Z,99.90
2019-05-06T22:55:15.296Z,99.90
2019-05-06T22:57:42.373Z,99.90
2019-05-06T23:00:15.092Z,99.90
2019-05-06T23:02:43.101Z,99.90
2019-05-06T23:05:09.548Z,99.90
2019-05-06T23:07:35.796Z,99.90
2019-05-06T23:10:07.145Z,99.90
2019-05-06T23:12:33.576Z,99.90
2019-05-06T23:14:59.925Z,99.90
2019-05-06T23:17:26.366Z,99.90
2019-05-06T23:19:52.860Z,99.90
2019-05-06T23:22:19.168Z,99.90
2019-05-06T23:24:45.625Z,99.90
2019-05-06T23:27:12.689Z,99.90
2019-05-06T23:29:39.119Z,99.90
2019-05-06T23:32:05.578Z,99.90
2019-05-06T23:34:32.503Z,99.90
2019-05-06T23:37:02.959Z,99.90
2019-05-06T23:40:08.385Z,99.90
2019-05-06T23:43:12.618Z,99.90
2019-05-06T23:46:16.225Z,99.90
2019-05-06T23:49:19.505Z,99.90
2019-05-06T23:52:22.798Z,99.90
2019-05-06T23:55:26.232Z,99.90
2019-05-06T23:57:52.656Z,99.90
